createdAt,value
2018-03-06T00:00:14.315Z,47.06
2018-03-06T00:01:14.297Z,47.18
2018-03-06T00:02:14.275Z,47.16
2018-03-06T00:03:14.251Z,47.35
2018-03-06T00:04:14.207Z,47.86
2018-03-06T00:05:14.188Z,47.74
2018-03-06T00:06:14.171Z,47.76
2018-03-06T00:07:14.106Z,47.93
2018-03-06T00:08:14.101Z,48.22
2018-03-06T00:09:14.074Z,48.42
2018-03-06T00:10:14.069Z,48.22
2018-03-06T00:11:13.998Z,48.22
2018-03-06T00:12:13.994Z,48.22
2018-03-06T00:13:13.973Z,48.22
2018-03-06T00:14:13.916Z,48.32
2018-03-06T00:15:13.910Z,48.22
2018-03-06T00:16:13.887Z,47.93
2018-03-06T00:17:13.838Z,47.64
2018-03-06T00:18:13.796Z,47.93
2018-03-06T00:19:13.788Z,47.93
2018-03-06T00:20:13.774Z,47.81
2018-03-06T00:21:13.705Z,47.81
2018-03-06T00:22:13.711Z,48.03
2018-03-06T00:23:13.664Z,47.72
2018-03-06T00:24:13.624Z,47.81
2018-03-06T00:25:13.612Z,47.23
2018-03-06T00:26:13.598Z,47.03
2018-03-06T00:27:13.570Z,47.23
2018-03-06T00:28:13.521Z,47.03
2018-03-06T00:29:13.500Z,47.33
2018-03-06T00:30:13.456Z,47.52
2018-03-06T00:31:13.461Z,47.40
2018-03-06T00:32:13.403Z,47.69
2018-03-06T00:33:13.370Z,47.69
2018-03-06T00:34:13.353Z,47.69
2018-03-06T00:35:13.343Z,47.79
2018-03-06T00:36:13.292Z,48.27
2018-03-06T00:37:13.285Z,48.18
2018-03-06T00:38:13.228Z,48.18
2018-03-06T00:39:13.236Z,48.47
2018-03-06T00:40:13.180Z,48.27
2018-03-06T00:41:13.162Z,48.57
2018-03-06T00:42:13.124Z,48.47
2018-03-06T00:43:13.087Z,48.64
2018-03-06T00:44:13.093Z,48.64
2018-03-06T00:45:13.038Z,48.83
2018-03-06T00:46:13.034Z,48.85
2018-03-06T00:47:12.974Z,49.32
2018-03-06T00:48:12.940Z,49.22
2018-03-06T00:49:12.906Z,49.02
2018-03-06T00:50:12.887Z,49.61
2018-03-06T00:51:12.863Z,49.70
2018-03-06T00:52:12.839Z,49.41
2018-03-06T00:53:12.811Z,49.99
2018-03-06T00:54:12.809Z,50.09
2018-03-06T00:55:12.747Z,49.77
2018-03-06T00:56:12.700Z,50.45
2018-03-06T00:57:12.716Z,50.45
2018-03-06T00:58:12.668Z,50.65
2018-03-06T00:59:12.663Z,50.74
2018-03-06T01:00:12.612Z,50.84
2018-03-06T01:01:12.575Z,50.84
2018-03-06T01:02:12.567Z,51.32
2018-03-06T01:03:12.543Z,51.04
2018-03-06T01:04:12.477Z,50.94
2018-03-06T01:05:12.461Z,51.78
2018-03-06T01:06:12.435Z,51.78
2018-03-06T01:07:12.427Z,51.88
2018-03-06T01:08:12.368Z,51.68
2018-03-06T01:09:12.357Z,51.88
2018-03-06T01:10:12.307Z,51.88
2018-03-06T01:11:12.317Z,51.68
2018-03-06T01:12:12.288Z,51.98
2018-03-06T01:13:12.219Z,52.17
2018-03-06T01:14:12.222Z,52.85
2018-03-06T01:15:12.170Z,52.95
2018-03-06T01:16:12.155Z,52.75
2018-03-06T01:17:12.120Z,52.95
2018-03-06T01:18:12.112Z,53.02
2018-03-06T01:19:12.071Z,53.23
2018-03-06T01:20:12.019Z,53.50
2018-03-06T01:21:11.988Z,53.89
2018-03-06T01:22:11.954Z,53.50
2018-03-06T01:23:11.943Z,53.69
2018-03-06T01:24:11.892Z,53.69
2018-03-06T01:25:13.078Z,53.89
2018-03-06T01:26:11.880Z,53.99
2018-03-06T01:27:11.851Z,53.99
2018-03-06T01:28:11.822Z,54.08
2018-03-06T01:29:11.764Z,54.17
2018-03-06T01:30:11.757Z,54.08
2018-03-06T01:31:11.703Z,54.47
2018-03-06T01:32:11.690Z,54.66
2018-03-06T01:33:11.644Z,53.79
2018-03-06T01:34:11.636Z,54.35
2018-03-06T01:35:11.614Z,54.66
2018-03-06T01:36:11.562Z,54.66
2018-03-06T01:37:11.528Z,54.37
2018-03-06T01:38:11.499Z,54.93
2018-03-06T01:39:11.475Z,54.85
2018-03-06T01:40:11.447Z,54.83
2018-03-06T01:41:11.413Z,55.05
2018-03-06T01:42:11.366Z,54.63
2018-03-06T01:43:11.355Z,54.53
2018-03-06T01:44:11.349Z,54.44
2018-03-06T01:45:11.296Z,54.44
2018-03-06T01:46:11.248Z,54.47
2018-03-06T01:47:11.266Z,54.47
2018-03-06T01:48:11.203Z,54.57
2018-03-06T01:49:11.170Z,54.47
2018-03-06T01:50:11.170Z,54.37
2018-03-06T01:51:11.143Z,54.25
2018-03-06T01:52:11.096Z,54.15
2018-03-06T01:53:11.080Z,54.05
2018-03-06T01:54:11.029Z,53.86
2018-03-06T01:55:11.019Z,53.67
2018-03-06T01:56:10.966Z,53.57
2018-03-06T01:57:10.930Z,53.67
2018-03-06T01:58:10.938Z,53.09
2018-03-06T01:59:10.886Z,52.80
2018-03-06T02:00:10.858Z,52.80
2018-03-06T02:01:10.855Z,52.99
2018-03-06T02:02:10.795Z,52.99
2018-03-06T02:03:10.783Z,52.99
2018-03-06T02:04:10.736Z,52.89
2018-03-06T02:05:10.713Z,52.61
2018-03-06T02:06:10.665Z,52.80
2018-03-06T02:07:10.671Z,53.16
2018-03-06T02:08:10.615Z,52.77
2018-03-06T02:09:10.603Z,52.97
2018-03-06T02:10:10.590Z,52.97
2018-03-06T02:11:10.524Z,52.67
2018-03-06T02:12:10.502Z,52.67
2018-03-06T02:13:10.476Z,52.09
2018-03-06T02:14:10.440Z,52.09
2018-03-06T02:15:10.429Z,51.81
2018-03-06T02:16:10.408Z,52.09
2018-03-06T02:17:10.375Z,51.81
2018-03-06T02:18:10.326Z,52.09
2018-03-06T02:19:10.299Z,52.09
2018-03-06T02:20:10.256Z,52.09
2018-03-06T02:21:10.249Z,52.19
2018-03-06T02:22:11.091Z,52.19
2018-03-06T02:23:10.196Z,52.00
2018-03-06T02:24:10.170Z,52.19
2018-03-06T02:25:10.108Z,51.90
2018-03-06T02:26:10.080Z,51.68
2018-03-06T02:27:10.071Z,51.68
2018-03-06T02:28:10.036Z,51.59
2018-03-06T02:29:09.998Z,52.17
2018-03-06T02:30:09.971Z,51.78
2018-03-06T02:31:09.934Z,51.97
2018-03-06T02:32:09.923Z,51.59
2018-03-06T02:33:09.879Z,51.68
2018-03-06T02:34:09.855Z,51.39
2018-03-06T02:35:09.828Z,50.91
2018-03-06T02:36:09.791Z,50.81
2018-03-06T02:37:09.763Z,51.07
2018-03-06T02:38:09.730Z,50.98
2018-03-06T02:39:09.740Z,50.98
2018-03-06T02:40:09.695Z,50.79
2018-03-06T02:41:09.669Z,50.79
2018-03-06T02:42:09.642Z,50.40
2018-03-06T02:43:09.572Z,50.69
2018-03-06T02:44:09.557Z,50.69
2018-03-06T02:45:09.541Z,50.50
2018-03-06T02:46:09.485Z,50.50
2018-03-06T02:47:09.507Z,50.98
2018-03-06T02:48:09.450Z,50.89
2018-03-06T02:49:09.421Z,50.59
2018-03-06T02:50:09.371Z,50.59
2018-03-06T02:51:09.345Z,50.98
2018-03-06T02:52:09.335Z,50.59
2018-03-06T02:53:09.288Z,50.98
2018-03-06T02:54:09.254Z,51.17
2018-03-06T02:55:09.223Z,50.98
2018-03-06T02:56:09.203Z,50.98
2018-03-06T02:57:09.158Z,50.59
2018-03-06T02:58:09.135Z,50.59
2018-03-06T02:59:09.127Z,50.79
2018-03-06T03:00:09.079Z,50.47
2018-03-06T03:01:09.047Z,50.67
2018-03-06T03:02:09.018Z,50.47
2018-03-06T03:03:09.008Z,50.67
2018-03-06T03:04:08.961Z,50.01
2018-03-06T03:05:08.922Z,50.09
2018-03-06T03:06:08.894Z,50.47
2018-03-06T03:07:08.886Z,50.18
2018-03-06T03:08:08.834Z,50.47
2018-03-06T03:09:08.851Z,50.28
2018-03-06T03:10:08.782Z,50.76
2018-03-06T03:11:08.777Z,50.18
2018-03-06T03:12:08.720Z,50.18
2018-03-06T03:13:08.703Z,50.67
2018-03-06T03:14:08.664Z,50.76
2018-03-06T03:15:08.619Z,50.67
2018-03-06T03:16:08.620Z,50.76
2018-03-06T03:17:08.572Z,50.38
2018-03-06T03:18:08.557Z,50.57
2018-03-06T03:19:08.529Z,50.67
2018-03-06T03:20:08.499Z,51.15
2018-03-06T03:21:08.442Z,50.67
2018-03-06T03:22:08.424Z,50.57
2018-03-06T03:23:08.386Z,49.70
2018-03-06T03:24:08.352Z,49.80
2018-03-06T03:25:08.327Z,49.99
2018-03-06T03:26:08.327Z,49.80
2018-03-06T03:27:08.274Z,50.09
2018-03-06T03:28:08.233Z,50.26
2018-03-06T03:29:08.236Z,50.35
2018-03-06T03:30:08.161Z,50.16
2018-03-06T03:31:08.143Z,50.45
2018-03-06T03:32:08.104Z,50.06
2018-03-06T03:33:08.086Z,49.87
2018-03-06T03:34:08.061Z,49.96
2018-03-06T03:35:08.057Z,49.77
2018-03-06T03:36:08.027Z,49.29
2018-03-06T03:37:07.960Z,49.39
2018-03-06T03:38:07.976Z,49.87
2018-03-06T03:39:07.926Z,49.65
2018-03-06T03:40:07.873Z,49.84
2018-03-06T03:41:07.845Z,50.35
2018-03-06T03:42:07.838Z,49.94
2018-03-06T03:43:07.809Z,49.48
2018-03-06T03:44:07.761Z,49.84
2018-03-06T03:45:07.756Z,50.13
2018-03-06T03:46:07.728Z,49.84
2018-03-06T03:47:07.662Z,50.62
2018-03-06T03:48:07.628Z,50.42
2018-03-06T03:49:07.613Z,49.94
2018-03-06T03:50:07.593Z,49.94
2018-03-06T03:51:07.553Z,49.65
2018-03-06T03:52:07.544Z,49.94
2018-03-06T03:53:07.492Z,49.55
2018-03-06T03:54:07.448Z,50.13
2018-03-06T03:55:07.416Z,49.75
2018-03-06T03:56:07.404Z,50.04
2018-03-06T03:57:07.378Z,49.46
2018-03-06T03:58:07.338Z,49.17
2018-03-06T03:59:07.299Z,49.46
2018-03-06T04:00:07.302Z,49.27
2018-03-06T04:01:07.240Z,49.17
2018-03-06T04:02:07.236Z,49.46
2018-03-06T04:03:08.116Z,49.37
2018-03-06T04:04:07.142Z,49.27
2018-03-06T04:05:07.106Z,49.37
2018-03-06T04:06:07.101Z,49.46
2018-03-06T04:07:07.628Z,49.15
2018-03-06T04:08:07.028Z,49.43
2018-03-06T04:09:07.029Z,49.73
2018-03-06T04:10:06.973Z,49.34
2018-03-06T04:11:06.969Z,49.53
2018-03-06T04:12:06.943Z,49.73
2018-03-06T04:13:06.897Z,50.30
2018-03-06T04:14:06.857Z,49.53
2018-03-06T04:15:06.839Z,49.73
2018-03-06T04:16:06.812Z,49.82
2018-03-06T04:17:06.776Z,50.30
2018-03-06T04:18:06.727Z,50.69
2018-03-06T04:19:06.703Z,50.69
2018-03-06T04:20:06.689Z,50.69
2018-03-06T04:21:06.632Z,51.07
2018-03-06T04:22:06.600Z,50.98
2018-03-06T04:23:06.599Z,50.78
2018-03-06T04:24:06.593Z,50.88
2018-03-06T04:25:06.522Z,50.78
2018-03-06T04:26:06.507Z,50.78
2018-03-06T04:27:06.441Z,51.43
2018-03-06T04:28:06.444Z,51.24
2018-03-06T04:29:06.395Z,51.43
2018-03-06T04:30:06.365Z,51.43
2018-03-06T04:31:06.352Z,51.34
2018-03-06T04:32:06.330Z,51.34
2018-03-06T04:33:06.271Z,51.53
2018-03-06T04:34:06.269Z,51.82
2018-03-06T04:35:06.197Z,51.62
2018-03-06T04:36:06.203Z,51.62
2018-03-06T04:37:06.152Z,51.62
2018-03-06T04:38:06.624Z,51.82
2018-03-06T04:39:06.097Z,51.62
2018-03-06T04:40:06.064Z,51.34
2018-03-06T04:41:06.019Z,51.53
2018-03-06T04:42:05.992Z,51.62
2018-03-06T04:43:05.974Z,51.72
2018-03-06T04:44:05.921Z,52.20
2018-03-06T04:45:05.933Z,52.69
2018-03-06T04:46:05.875Z,52.40
2018-03-06T04:47:05.847Z,52.69
2018-03-06T04:48:05.811Z,52.69
2018-03-06T04:49:05.806Z,52.87
2018-03-06T04:50:05.754Z,52.69
2018-03-06T04:51:05.728Z,52.69
2018-03-06T04:52:05.721Z,52.78
2018-03-06T04:53:05.673Z,52.87
2018-03-06T04:54:05.626Z,53.17
2018-03-06T04:55:05.630Z,53.27
2018-03-06T04:56:05.589Z,53.07
2018-03-06T04:57:05.536Z,53.45
2018-03-06T04:58:05.497Z,53.65
2018-03-06T04:59:05.478Z,53.23
2018-03-06T05:00:05.422Z,53.62
2018-03-06T05:01:05.443Z,53.91
2018-03-06T05:02:05.397Z,54.10
2018-03-06T05:03:05.361Z,54.10
2018-03-06T05:04:05.340Z,54.56
2018-03-06T05:05:05.295Z,54.68
2018-03-06T05:06:05.277Z,54.68
2018-03-06T05:07:05.238Z,54.49
2018-03-06T05:08:05.229Z,54.78
2018-03-06T05:09:06.146Z,54.78
2018-03-06T05:10:05.144Z,54.78
2018-03-06T05:11:05.200Z,54.78
2018-03-06T05:12:05.080Z,54.75
2018-03-06T05:13:05.078Z,54.87
2018-03-06T05:14:05.020Z,54.75
2018-03-06T05:15:05.010Z,54.97
2018-03-06T05:16:04.987Z,54.87
2018-03-06T05:17:04.955Z,54.85
2018-03-06T05:18:04.912Z,54.85
2018-03-06T05:19:04.884Z,55.23
2018-03-06T05:20:04.837Z,55.62
2018-03-06T05:21:04.808Z,55.23
2018-03-06T05:22:04.764Z,55.43
2018-03-06T05:23:04.761Z,55.13
2018-03-06T05:24:04.738Z,55.13
2018-03-06T05:25:04.686Z,55.43
2018-03-06T05:26:04.669Z,55.45
2018-03-06T05:27:04.605Z,55.23
2018-03-06T05:28:04.585Z,55.52
2018-03-06T05:29:04.577Z,55.23
2018-03-06T05:30:04.552Z,55.43
2018-03-06T05:31:04.480Z,55.81
2018-03-06T05:32:04.479Z,55.71
2018-03-06T05:33:04.461Z,55.71
2018-03-06T05:34:04.394Z,55.71
2018-03-06T05:35:04.362Z,56.10
2018-03-06T05:36:04.343Z,56.10
2018-03-06T05:37:04.315Z,56.00
2018-03-06T05:38:04.282Z,56.20
2018-03-06T05:39:04.246Z,56.67
2018-03-06T05:40:04.225Z,56.67
2018-03-06T05:41:04.184Z,56.67
2018-03-06T05:42:04.163Z,56.74
2018-03-06T05:43:04.120Z,56.48
2018-03-06T05:44:04.092Z,56.74
2018-03-06T05:45:04.079Z,56.65
2018-03-06T05:46:04.636Z,56.77
2018-03-06T05:47:04.023Z,56.45
2018-03-06T05:48:03.993Z,56.45
2018-03-06T05:49:03.933Z,56.93
2018-03-06T05:50:03.891Z,56.93
2018-03-06T05:51:03.876Z,57.13
2018-03-06T05:52:03.851Z,57.99
2018-03-06T05:53:03.831Z,57.99
2018-03-06T05:54:03.776Z,57.80
2018-03-06T05:55:03.748Z,57.70
2018-03-06T05:56:03.713Z,57.70
2018-03-06T05:57:03.689Z,57.70
2018-03-06T05:58:03.687Z,57.60
2018-03-06T05:59:03.636Z,57.51
2018-03-06T06:00:03.631Z,58.09
2018-03-06T06:01:03.560Z,58.09
2018-03-06T06:02:03.529Z,58.09
2018-03-06T06:03:03.495Z,57.90
2018-03-06T06:04:03.468Z,58.37
2018-03-06T06:05:03.424Z,58.37
2018-03-06T06:06:03.442Z,58.09
2018-03-06T06:07:03.389Z,58.09
2018-03-06T06:08:03.374Z,57.80
2018-03-06T06:09:03.311Z,57.99
2018-03-06T06:10:03.317Z,58.09
2018-03-06T06:11:03.261Z,57.97
2018-03-06T06:12:03.216Z,58.25
2018-03-06T06:13:03.205Z,58.25
2018-03-06T06:14:03.195Z,57.87
2018-03-06T06:15:03.126Z,57.58
2018-03-06T06:16:03.100Z,57.68
2018-03-06T06:17:03.095Z,57.48
2018-03-06T06:18:03.042Z,57.20
2018-03-06T06:19:03.030Z,57.48
2018-03-06T06:20:02.997Z,57.58
2018-03-06T06:21:02.941Z,57.77
2018-03-06T06:22:02.921Z,57.39
2018-03-06T06:23:02.911Z,57.97
2018-03-06T06:24:02.890Z,57.58
2018-03-06T06:25:02.809Z,57.77
2018-03-06T06:26:02.798Z,58.06
2018-03-06T06:27:02.759Z,57.68
2018-03-06T06:28:02.744Z,58.06
2018-03-06T06:29:02.691Z,57.77
2018-03-06T06:30:02.699Z,57.97
2018-03-06T06:31:02.638Z,57.97
2018-03-06T06:32:02.636Z,58.06
2018-03-06T06:33:02.608Z,57.97
2018-03-06T06:34:02.563Z,58.06
2018-03-06T06:35:02.535Z,57.97
2018-03-06T06:36:02.486Z,57.87
2018-03-06T06:37:02.465Z,58.45
2018-03-06T06:38:02.449Z,58.54
2018-03-06T06:39:02.413Z,58.54
2018-03-06T06:40:02.378Z,58.83
2018-03-06T06:41:02.357Z,59.31
2018-03-06T06:42:02.308Z,59.38
2018-03-06T06:43:02.276Z,59.19
2018-03-06T06:44:02.256Z,58.45
2018-03-06T06:45:02.203Z,58.45
2018-03-06T06:46:02.202Z,59.31
2018-03-06T06:47:02.137Z,58.73
2018-03-06T06:48:02.088Z,59.41
2018-03-06T06:49:02.071Z,58.73
2018-03-06T06:50:02.059Z,58.92
2018-03-06T06:51:02.020Z,59.02
2018-03-06T06:52:01.978Z,59.02
2018-03-06T06:53:01.953Z,59.19
2018-03-06T06:54:01.943Z,59.28
2018-03-06T06:55:01.881Z,59.38
2018-03-06T06:56:01.859Z,59.57
2018-03-06T06:57:01.826Z,59.66
2018-03-06T06:58:01.794Z,59.95
2018-03-06T06:59:01.796Z,60.05
2018-03-06T07:00:01.726Z,60.24
2018-03-06T07:01:01.708Z,60.82
2018-03-06T07:02:01.682Z,60.82
2018-03-06T07:03:01.661Z,61.11
2018-03-06T07:04:01.632Z,60.72
2018-03-06T07:05:01.597Z,60.91
2018-03-06T07:06:01.552Z,60.82
2018-03-06T07:07:01.516Z,61.20
2018-03-06T07:08:01.475Z,61.20
2018-03-06T07:09:01.462Z,60.91
2018-03-06T07:10:01.407Z,60.72
2018-03-06T07:11:01.401Z,61.49
2018-03-06T07:12:01.352Z,61.01
2018-03-06T07:13:01.331Z,61.20
2018-03-06T07:14:01.294Z,61.20
2018-03-06T07:15:01.259Z,61.58
2018-03-06T07:16:01.235Z,61.11
2018-03-06T07:17:01.232Z,61.11
2018-03-06T07:18:01.176Z,61.11
2018-03-06T07:19:01.159Z,61.11
2018-03-06T07:20:01.135Z,60.91
2018-03-06T07:21:01.054Z,61.11
2018-03-06T07:22:01.065Z,61.20
2018-03-06T07:23:01.012Z,61.30
2018-03-06T07:24:00.993Z,61.49
2018-03-06T07:25:00.954Z,61.68
2018-03-06T07:26:00.918Z,60.91
2018-03-06T07:27:00.906Z,60.91
2018-03-06T07:28:00.855Z,61.01
2018-03-06T07:29:00.818Z,61.17
2018-03-06T07:30:00.790Z,61.11
2018-03-06T07:31:00.753Z,61.49
2018-03-06T07:32:00.724Z,60.98
2018-03-06T07:33:00.722Z,61.17
2018-03-06T07:34:00.669Z,60.78
2018-03-06T07:35:00.661Z,61.65
2018-03-06T07:36:00.616Z,61.75
2018-03-06T07:37:00.573Z,61.08
2018-03-06T07:38:00.536Z,61.58
2018-03-06T07:39:00.542Z,61.65
2018-03-06T07:40:00.505Z,61.58
2018-03-06T07:41:00.453Z,61.01
2018-03-06T07:42:00.423Z,61.30
2018-03-06T07:43:00.420Z,61.20
2018-03-06T07:44:00.367Z,61.49
2018-03-06T07:45:00.313Z,61.40
2018-03-06T07:46:00.295Z,60.91
2018-03-06T07:47:00.260Z,61.08
2018-03-06T07:48:00.236Z,61.65
2018-03-06T07:49:00.198Z,61.46
2018-03-06T07:50:00.174Z,61.75
2018-03-06T07:51:00.140Z,61.65
2018-03-06T07:52:00.117Z,61.65
2018-03-06T07:53:00.072Z,61.87
2018-03-06T07:54:00.056Z,61.84
2018-03-06T07:55:00.018Z,61.78
2018-03-06T07:56:00.003Z,61.75
2018-03-06T07:56:59.980Z,62.23
2018-03-06T07:57:59.934Z,62.13
2018-03-06T07:58:59.891Z,62.04
2018-03-06T07:59:59.882Z,62.42
2018-03-06T08:00:59.819Z,62.61
2018-03-06T08:01:59.782Z,62.61
2018-03-06T08:02:59.806Z,62.90
2018-03-06T08:03:59.743Z,62.90
2018-03-06T08:04:59.696Z,63.28
2018-03-06T08:05:59.692Z,62.90
2018-03-06T08:06:59.633Z,63.28
2018-03-06T08:07:59.615Z,62.90
2018-03-06T08:08:59.598Z,63.19
2018-03-06T08:09:59.562Z,63.28
2018-03-06T08:10:59.519Z,63.28
2018-03-06T08:11:59.509Z,63.67
2018-03-06T08:12:59.473Z,63.76
2018-03-06T08:13:59.429Z,63.57
2018-03-06T08:14:59.411Z,63.96
2018-03-06T08:15:59.368Z,64.53
2018-03-06T08:16:59.319Z,64.63
2018-03-06T08:17:59.315Z,64.34
2018-03-06T08:18:59.278Z,64.15
2018-03-06T08:19:59.227Z,64.25
2018-03-06T08:20:59.215Z,64.34
2018-03-06T08:21:59.168Z,64.34
2018-03-06T08:22:59.134Z,65.40
2018-03-06T08:23:59.091Z,65.11
2018-03-06T08:24:59.094Z,64.92
2018-03-06T08:25:59.053Z,65.11
2018-03-06T08:26:58.999Z,65.49
2018-03-06T08:27:58.966Z,65.40
2018-03-06T08:28:58.943Z,65.27
2018-03-06T08:29:58.936Z,66.03
2018-03-06T08:30:58.879Z,66.03
2018-03-06T08:31:58.870Z,65.78
2018-03-06T08:32:58.811Z,65.65
2018-03-06T08:33:58.795Z,65.88
2018-03-06T08:34:58.753Z,65.40
2018-03-06T08:35:58.731Z,65.84
2018-03-06T08:36:58.688Z,65.88
2018-03-06T08:37:58.668Z,65.84
2018-03-06T08:38:58.651Z,65.84
2018-03-06T08:39:58.586Z,66.03
2018-03-06T08:40:58.556Z,66.23
2018-03-06T08:41:58.559Z,66.13
2018-03-06T08:42:58.496Z,66.16
2018-03-06T08:43:58.476Z,66.03
2018-03-06T08:44:58.443Z,66.16
2018-03-06T08:45:58.416Z,65.78
2018-03-06T08:46:58.376Z,65.59
2018-03-06T08:47:58.340Z,66.03
2018-03-06T08:48:58.310Z,66.16
2018-03-06T08:49:58.273Z,66.46
2018-03-06T08:50:58.250Z,66.55
2018-03-06T08:51:58.225Z,66.46
2018-03-06T08:52:58.178Z,66.42
2018-03-06T08:53:58.184Z,67.03
2018-03-06T08:54:58.118Z,66.61
2018-03-06T08:55:58.085Z,66.80
2018-03-06T08:56:58.079Z,66.90
2018-03-06T08:57:58.030Z,67.09
2018-03-06T08:58:57.986Z,67.09
2018-03-06T08:59:57.970Z,67.47
2018-03-06T09:00:57.950Z,67.19
2018-03-06T09:01:57.893Z,67.86
2018-03-06T09:02:57.850Z,68.05
2018-03-06T09:03:57.854Z,67.96
2018-03-06T09:04:57.807Z,67.96
2018-03-06T09:05:57.794Z,68.05
2018-03-06T09:06:57.744Z,67.67
2018-03-06T09:07:57.705Z,67.76
2018-03-06T09:08:57.676Z,68.15
2018-03-06T09:09:57.672Z,67.57
2018-03-06T09:10:57.640Z,68.05
2018-03-06T09:11:57.582Z,67.76
2018-03-06T09:12:57.552Z,68.24
2018-03-06T09:13:57.546Z,69.20
2018-03-06T09:14:57.483Z,68.24
2018-03-06T09:15:57.481Z,68.82
2018-03-06T09:16:57.436Z,68.63
2018-03-06T09:17:57.414Z,68.91
2018-03-06T09:18:57.356Z,68.82
2018-03-06T09:19:57.351Z,68.63
2018-03-06T09:20:57.318Z,68.53
2018-03-06T09:21:57.261Z,69.20
2018-03-06T09:22:57.224Z,69.20
2018-03-06T09:23:57.216Z,68.91
2018-03-06T09:24:57.193Z,68.82
2018-03-06T09:25:57.171Z,68.82
2018-03-06T09:26:57.110Z,69.11
2018-03-06T09:27:57.099Z,69.40
2018-03-06T09:28:57.034Z,69.68
2018-03-06T09:29:56.996Z,69.59
2018-03-06T09:30:56.992Z,69.46
2018-03-06T09:31:56.936Z,69.93
2018-03-06T09:32:56.953Z,69.46
2018-03-06T09:33:56.881Z,69.93
2018-03-06T09:34:56.883Z,70.13
2018-03-06T09:35:56.816Z,70.32
2018-03-06T09:36:56.850Z,69.97
2018-03-06T09:37:56.779Z,69.84
2018-03-06T09:38:56.710Z,70.23
2018-03-06T09:39:56.693Z,70.36
2018-03-06T09:40:56.684Z,70.23
2018-03-06T09:41:56.660Z,70.23
2018-03-06T09:42:56.629Z,70.42
2018-03-06T09:43:56.574Z,70.70
2018-03-06T09:44:56.532Z,70.61
2018-03-06T09:45:56.507Z,70.70
2018-03-06T09:46:56.484Z,70.32
2018-03-06T09:47:56.448Z,70.80
2018-03-06T09:48:56.408Z,70.23
2018-03-06T09:49:56.418Z,70.26
2018-03-06T09:50:56.354Z,70.45
2018-03-06T09:51:56.311Z,70.23
2018-03-06T09:52:56.306Z,70.51
2018-03-06T09:53:56.268Z,70.36
2018-03-06T09:54:56.236Z,70.26
2018-03-06T09:55:56.198Z,70.45
2018-03-06T09:56:56.166Z,70.45
2018-03-06T09:57:56.152Z,70.26
2018-03-06T09:58:56.111Z,70.99
2018-03-06T09:59:56.083Z,70.64
2018-03-06T10:00:56.047Z,71.22
2018-03-06T10:01:55.980Z,70.74
2018-03-06T10:02:55.985Z,70.84
2018-03-06T10:03:55.953Z,71.22
2018-03-06T10:04:55.899Z,71.31
2018-03-06T10:05:55.863Z,70.45
2018-03-06T10:06:55.860Z,70.93
2018-03-06T10:07:55.789Z,70.55
2018-03-06T10:08:55.796Z,70.45
2018-03-06T10:09:55.730Z,70.17
2018-03-06T10:10:55.732Z,69.78
2018-03-06T10:11:55.675Z,70.26
2018-03-06T10:12:55.643Z,70.26
2018-03-06T10:13:55.798Z,70.36
2018-03-06T10:14:55.572Z,70.26
2018-03-06T10:15:55.544Z,70.26
2018-03-06T10:16:55.570Z,69.97
2018-03-06T10:17:55.481Z,70.45
2018-03-06T10:18:55.452Z,70.17
2018-03-06T10:19:55.426Z,70.36
2018-03-06T10:20:55.395Z,69.78
2018-03-06T10:21:55.368Z,70.64
2018-03-06T10:22:55.349Z,70.45
2018-03-06T10:23:55.325Z,70.36
2018-03-06T10:24:55.247Z,70.07
2018-03-06T10:25:55.226Z,69.87
2018-03-06T10:26:55.192Z,70.45
2018-03-06T10:27:55.185Z,69.53
2018-03-06T10:28:55.136Z,69.72
2018-03-06T10:29:55.116Z,69.34
2018-03-06T10:30:55.069Z,69.53
2018-03-06T10:31:55.060Z,69.05
2018-03-06T10:32:55.017Z,68.95
2018-03-06T10:33:54.984Z,68.95
2018-03-06T10:34:54.931Z,69.14
2018-03-06T10:35:54.933Z,68.85
2018-03-06T10:36:54.914Z,69.91
2018-03-06T10:37:54.873Z,69.62
2018-03-06T10:38:54.854Z,69.62
2018-03-06T10:39:54.805Z,68.85
2018-03-06T10:40:54.748Z,69.53
2018-03-06T10:41:54.726Z,68.76
2018-03-06T10:42:54.705Z,69.24
2018-03-06T10:43:54.712Z,68.85
2018-03-06T10:44:54.653Z,69.24
2018-03-06T10:45:54.623Z,68.28
2018-03-06T10:46:54.558Z,69.05
2018-03-06T10:47:54.543Z,68.31
2018-03-06T10:48:54.510Z,67.93
2018-03-06T10:49:54.477Z,67.83
2018-03-06T10:50:54.494Z,67.90
2018-03-06T10:51:54.409Z,68.12
2018-03-06T10:52:54.389Z,68.12
2018-03-06T10:53:54.343Z,67.93
2018-03-06T10:54:54.333Z,67.64
2018-03-06T10:55:54.289Z,67.45
2018-03-06T10:56:54.258Z,67.35
2018-03-06T10:57:54.243Z,66.97
2018-03-06T10:58:54.220Z,67.07
2018-03-06T10:59:54.187Z,67.35
2018-03-06T11:00:54.166Z,67.54
2018-03-06T11:01:54.099Z,66.87
2018-03-06T11:02:54.079Z,67.45
2018-03-06T11:03:54.032Z,67.45
2018-03-06T11:04:54.005Z,67.54
2018-03-06T11:05:53.967Z,66.97
2018-03-06T11:06:53.957Z,67.54
2018-03-06T11:07:53.922Z,67.07
2018-03-06T11:08:53.906Z,67.74
2018-03-06T11:09:53.843Z,66.87
2018-03-06T11:10:53.813Z,66.81
2018-03-06T11:11:53.824Z,66.33
2018-03-06T11:12:53.733Z,66.42
2018-03-06T11:13:53.724Z,65.94
2018-03-06T11:14:53.684Z,66.23
2018-03-06T11:15:53.678Z,65.66
2018-03-06T11:16:53.643Z,65.46
2018-03-06T11:17:53.593Z,65.50
2018-03-06T11:18:53.563Z,65.30
2018-03-06T11:19:53.528Z,65.40
2018-03-06T11:20:53.487Z,64.63
2018-03-06T11:21:53.476Z,64.73
2018-03-06T11:22:53.424Z,64.53
2018-03-06T11:23:53.411Z,64.82
2018-03-06T11:24:53.367Z,64.53
2018-03-06T11:25:53.337Z,64.73
2018-03-06T11:26:53.334Z,64.05
2018-03-06T11:27:53.281Z,64.73
2018-03-06T11:28:53.247Z,64.15
2018-03-06T11:29:53.234Z,63.86
2018-03-06T11:30:53.195Z,64.15
2018-03-06T11:31:53.182Z,64.53
2018-03-06T11:32:53.142Z,63.89
2018-03-06T11:33:53.103Z,63.76
2018-03-06T11:34:53.063Z,63.86
2018-03-06T11:35:53.031Z,63.79
2018-03-06T11:36:53.024Z,63.51
2018-03-06T11:37:52.966Z,63.41
2018-03-06T11:38:52.940Z,63.51
2018-03-06T11:39:52.913Z,63.12
2018-03-06T11:40:52.893Z,63.41
2018-03-06T11:41:52.870Z,63.02
2018-03-06T11:42:52.840Z,63.22
2018-03-06T11:43:52.779Z,62.64
2018-03-06T11:44:52.729Z,62.74
2018-03-06T11:45:52.719Z,63.02
2018-03-06T11:46:52.705Z,62.83
2018-03-06T11:47:52.645Z,62.67
2018-03-06T11:48:52.624Z,62.48
2018-03-06T11:49:52.612Z,62.38
2018-03-06T11:50:52.590Z,62.09
2018-03-06T11:51:52.523Z,62.19
2018-03-06T11:52:52.526Z,62.57
2018-03-06T11:53:52.484Z,62.00
2018-03-06T11:54:52.458Z,62.00
2018-03-06T11:55:52.399Z,62.57
2018-03-06T11:56:52.377Z,62.29
2018-03-06T11:57:52.338Z,62.48
2018-03-06T11:58:52.324Z,62.38
2018-03-06T11:59:52.301Z,61.74
2018-03-06T12:00:52.249Z,61.45
2018-03-06T12:01:52.250Z,61.22
2018-03-06T12:02:52.218Z,62.12
2018-03-06T12:03:52.157Z,61.80
2018-03-06T12:04:52.150Z,61.22
2018-03-06T12:05:52.125Z,61.93
2018-03-06T12:06:52.062Z,61.52
2018-03-06T12:07:52.052Z,61.90
2018-03-06T12:08:52.009Z,61.42
2018-03-06T12:09:51.974Z,62.19
2018-03-06T12:10:51.969Z,61.71
2018-03-06T12:11:51.921Z,61.90
2018-03-06T12:12:51.893Z,61.80
2018-03-06T12:13:51.839Z,61.80
2018-03-06T12:14:51.819Z,61.42
2018-03-06T12:15:51.795Z,61.42
2018-03-06T12:16:51.760Z,61.80
2018-03-06T12:17:51.746Z,62.19
2018-03-06T12:18:51.705Z,62.38
2018-03-06T12:19:52.232Z,62.09
2018-03-06T12:20:51.656Z,62.19
2018-03-06T12:21:51.595Z,62.19
2018-03-06T12:22:51.562Z,62.09
2018-03-06T12:23:51.540Z,61.80
2018-03-06T12:24:51.521Z,61.90
2018-03-06T12:25:51.499Z,61.42
2018-03-06T12:26:51.476Z,61.52
2018-03-06T12:27:51.438Z,61.61
2018-03-06T12:28:51.392Z,61.71
2018-03-06T12:29:51.349Z,61.42
2018-03-06T12:30:51.322Z,61.42
2018-03-06T12:31:51.315Z,61.22
2018-03-06T12:32:51.270Z,60.46
2018-03-06T12:33:51.233Z,60.75
2018-03-06T12:34:51.185Z,60.17
2018-03-06T12:35:51.165Z,60.17
2018-03-06T12:36:51.197Z,60.27
2018-03-06T12:37:51.106Z,59.59
2018-03-06T12:38:51.101Z,60.30
2018-03-06T12:39:51.044Z,59.72
2018-03-06T12:40:51.037Z,59.33
2018-03-06T12:41:50.975Z,59.14
2018-03-06T12:42:51.019Z,59.62
2018-03-06T12:43:50.925Z,59.33
2018-03-06T12:44:50.882Z,59.62
2018-03-06T12:45:50.865Z,59.52
2018-03-06T12:46:50.834Z,59.33
2018-03-06T12:47:50.833Z,58.85
2018-03-06T12:48:50.765Z,58.95
2018-03-06T12:49:50.728Z,58.95
2018-03-06T12:50:50.704Z,58.49
2018-03-06T12:51:50.711Z,57.62